createdAt,value
2022-09-02T00:00:14.601Z,76.97
2022-09-02T00:02:41.000Z,77.93
2022-09-02T00:05:07.389Z,77.41
2022-09-02T00:07:33.696Z,77.21
2022-09-02T00:10:00.462Z,78.74
2022-09-02T00:12:26.817Z,79.11
2022-09-02T00:14:53.117Z,78.43
2022-09-02T00:17:19.417Z,78.36
2022-09-02T00:19:45.721Z,78.82
2022-09-02T00:22:12.024Z,78.59
2022-09-02T00:24:38.444Z,77.52
2022-09-02T00:27:04.744Z,77.98
2022-09-02T00:29:31.120Z,77.95
2022-09-02T00:31:57.571Z,77.21
2022-09-02T00:34:23.947Z,77.53
2022-09-02T00:36:50.273Z,80.53
2022-09-02T00:39:17.100Z,79.19
2022-09-02T00:41:43.393Z,79.95
2022-09-02T00:44:09.701Z,80.99
2022-09-02T00:46:36.052Z,79.17
2022-09-02T00:49:02.353Z,78.22
2022-09-02T00:51:30.171Z,77.99
2022-09-02T00:53:56.634Z,77.73
2022-09-02T00:56:22.943Z,77.63
2022-09-02T00:58:49.254Z,77.05
2022-09-02T01:01:15.660Z,77.09
2022-09-02T01:03:42.092Z,77.28
2022-09-02T01:06:08.387Z,77.01
2022-09-02T01:08:35.461Z,76.62
2022-09-02T01:11:01.785Z,76.85
2022-09-02T01:13:28.399Z,77.16
2022-09-02T01:15:54.759Z,76.96
2022-09-02T01:18:21.779Z,76.79
2022-09-02T01:20:48.070Z,76.85
2022-09-02T01:23:14.426Z,76.99
2022-09-02T01:25:41.183Z,76.61
2022-09-02T01:28:07.475Z,76.62
2022-09-02T01:30:33.790Z,76.48
2022-09-02T01:33:00.088Z,76.80
2022-09-02T01:35:26.394Z,76.70
2022-09-02T01:37:55.745Z,76.59
2022-09-02T01:40:22.498Z,76.70
2022-09-02T01:42:48.809Z,76.89
2022-09-02T01:45:15.765Z,76.89
2022-09-02T01:47:42.063Z,76.99
2022-09-02T01:50:08.368Z,76.79
2022-09-02T01:52:34.763Z,76.75
2022-09-02T01:55:01.166Z,77.10
2022-09-02T01:57:27.459Z,76.72
2022-09-02T01:59:53.775Z,76.90
2022-09-02T02:02:20.165Z,77.04
2022-09-02T02:04:46.550Z,77.00
2022-09-02T02:07:14.170Z,77.36
2022-09-02T02:09:40.535Z,78.01
2022-09-02T02:12:07.831Z,78.06
2022-09-02T02:14:34.120Z,78.02
2022-09-02T02:17:00.598Z,77.63
2022-09-02T02:19:26.895Z,79.07
2022-09-02T02:21:53.193Z,81.10
2022-09-02T02:24:19.492Z,80.22
2022-09-02T02:26:45.794Z,79.42
2022-09-02T02:29:12.088Z,79.03
2022-09-02T02:31:38.456Z,79.13
2022-09-02T02:34:04.807Z,79.29
2022-09-02T02:36:31.435Z,78.63
2022-09-02T02:38:57.740Z,78.56
2022-09-02T02:41:24.045Z,78.56
2022-09-02T02:43:50.358Z,77.83
2022-09-02T02:46:16.771Z,77.85
2022-09-02T02:48:43.099Z,78.33
2022-09-02T02:51:09.639Z,78.32
2022-09-02T02:53:36.848Z,77.64
2022-09-02T02:56:03.085Z,77.80
2022-09-02T02:58:29.806Z,78.08
2022-09-02T03:00:56.233Z,77.76
2022-09-02T03:03:22.719Z,77.62
2022-09-02T03:05:49.159Z,79.12
2022-09-02T03:08:15.468Z,78.33
2022-09-02T03:10:42.081Z,78.46
2022-09-02T03:13:09.629Z,78.12
2022-09-02T03:15:36.191Z,78.24
2022-09-02T03:18:02.515Z,78.63
2022-09-02T03:20:28.833Z,79.54
2022-09-02T03:22:55.136Z,80.83
2022-09-02T03:25:21.603Z,80.13
2022-09-02T03:27:48.534Z,79.44
2022-09-02T03:30:14.824Z,79.08
2022-09-02T03:32:41.145Z,79.17
2022-09-02T03:35:07.697Z,78.98
2022-09-02T03:37:34.013Z,79.08
2022-09-02T03:40:00.355Z,78.91
2022-09-02T03:42:26.653Z,78.59
2022-09-02T03:44:53.224Z,78.34
2022-09-02T03:47:21.524Z,78.76
2022-09-02T03:49:50.815Z,78.60
2022-09-02T03:52:17.118Z,78.84
2022-09-02T03:54:43.413Z,78.99
2022-09-02T03:57:09.730Z,78.71
2022-09-02T03:59:36.117Z,78.80
2022-09-02T04:02:06.099Z,79.22
2022-09-02T04:04:32.508Z,79.01
2022-09-02T04:06:58.873Z,79.09
2022-09-02T04:09:25.174Z,79.12
2022-09-02T04:11:51.490Z,78.95
2022-09-02T04:14:17.787Z,78.64
2022-09-02T04:16:44.083Z,78.73
2022-09-02T04:19:10.422Z,78.95
2022-09-02T04:21:36.715Z,79.31
2022-09-02T04:24:03.030Z,79.37
2022-09-02T04:26:29.327Z,79.30
2022-09-02T04:28:55.770Z,79.92
2022-09-02T04:31:22.242Z,80.15
2022-09-02T04:33:48.585Z,80.28
2022-09-02T04:36:14.927Z,81.07
2022-09-02T04:38:41.307Z,81.38
2022-09-02T04:41:07.625Z,81.47
2022-09-02T04:43:33.940Z,81.67
2022-09-02T04:46:01.539Z,81.65
2022-09-02T04:48:27.843Z,81.17
2022-09-02T04:50:54.142Z,81.64
2022-09-02T04:53:20.492Z,81.71
2022-09-02T04:55:46.809Z,80.83
2022-09-02T04:58:13.112Z,81.59
2022-09-02T05:00:39.425Z,82.20
2022-09-02T05:03:06.659Z,81.66
2022-09-02T05:05:32.985Z,81.62
2022-09-02T05:07:59.344Z,83.21
2022-09-02T05:10:25.659Z,83.56
2022-09-02T05:12:52.288Z,82.46
2022-09-02T05:15:18.687Z,83.09
2022-09-02T05:17:46.160Z,83.23
2022-09-02T05:20:12.467Z,83.85
2022-09-02T05:22:38.772Z,83.54
2022-09-02T05:25:06.370Z,83.78
2022-09-02T05:27:33.391Z,83.98
2022-09-02T05:29:59.717Z,83.88
2022-09-02T05:32:26.970Z,83.76
2022-09-02T05:34:53.275Z,84.22
2022-09-02T05:37:19.620Z,83.71
2022-09-02T05:39:45.964Z,83.81
2022-09-02T05:42:12.301Z,83.59
2022-09-02T05:44:39.062Z,83.63
2022-09-02T05:47:05.401Z,84.10
2022-09-02T05:49:31.698Z,83.23
2022-09-02T05:51:58.028Z,83.32
2022-09-02T05:54:24.339Z,83.11
2022-09-02T05:56:51.082Z,82.32
2022-09-02T05:59:18.149Z,82.57
2022-09-02T06:01:44.485Z,82.07
2022-09-02T06:04:11.069Z,81.90
2022-09-02T06:06:40.909Z,81.55
2022-09-02T06:09:08.643Z,82.10
2022-09-02T06:11:34.936Z,82.00
2022-09-02T06:14:02.677Z,81.75
2022-09-02T06:16:29.001Z,81.43
2022-09-02T06:18:55.373Z,80.34
2022-09-02T06:21:21.881Z,80.96
2022-09-02T06:23:48.205Z,80.16
2022-09-02T06:26:18.170Z,79.51
2022-09-02T06:28:44.460Z,79.27
2022-09-02T06:31:10.773Z,80.14
2022-09-02T06:33:38.033Z,79.97
2022-09-02T06:36:04.341Z,79.15
2022-09-02T06:38:30.641Z,78.99
2022-09-02T06:40:56.948Z,77.65
2022-09-02T06:43:24.137Z,78.40
2022-09-02T06:45:50.675Z,78.38
2022-09-02T06:48:17.025Z,77.57
2022-09-02T06:50:43.347Z,76.39
2022-09-02T06:53:10.759Z,76.05
2022-09-02T06:55:37.066Z,74.19
2022-09-02T06:58:03.472Z,74.78
2022-09-02T07:00:31.593Z,74.10
2022-09-02T07:03:16.842Z,73.00
2022-09-02T07:05:43.242Z,72.21
2022-09-02T07:08:09.536Z,70.90
2022-09-02T07:10:35.956Z,70.75
2022-09-02T07:13:02.256Z,69.63
2022-09-02T07:15:28.556Z,68.93
2022-09-02T07:17:55.003Z,68.96
2022-09-02T07:20:21.295Z,69.02
2022-09-02T07:22:47.651Z,68.52
2022-09-02T07:25:13.951Z,67.70
2022-09-02T07:27:40.275Z,67.04
2022-09-02T07:30:06.744Z,66.85
2022-09-02T07:32:33.055Z,66.14
2022-09-02T07:34:59.347Z,65.78
2022-09-02T07:37:25.644Z,65.34
2022-09-02T07:39:52.023Z,64.33
2022-09-02T07:42:19.494Z,63.28
2022-09-02T07:44:45.863Z,62.29
2022-09-02T07:47:12.155Z,61.77
2022-09-02T07:52:24.723Z,60.87
2022-09-02T07:54:51.020Z,60.47
2022-09-02T07:57:17.349Z,59.74
2022-09-02T07:59:43.645Z,60.41
2022-09-02T08:02:10.055Z,59.91
2022-09-02T08:04:36.406Z,61.11
2022-09-02T08:07:02.715Z,57.85
2022-09-02T08:09:29.036Z,58.54
2022-09-02T08:11:55.336Z,58.22
2022-09-02T08:14:21.639Z,57.28
2022-09-02T08:16:47.999Z,57.59
2022-09-02T08:19:14.339Z,55.84
2022-09-02T08:21:40.652Z,53.89
2022-09-02T08:24:06.999Z,54.80
2022-09-02T08:26:37.043Z,55.68
2022-09-02T08:29:03.703Z,54.54
2022-09-02T08:31:32.127Z,53.03
2022-09-02T08:33:58.523Z,51.73
2022-09-02T08:36:24.855Z,53.35
2022-09-02T08:38:51.179Z,52.86
2022-09-02T08:41:17.527Z,51.30
2022-09-02T08:43:43.924Z,48.35
2022-09-02T08:46:10.682Z,47.14
2022-09-02T08:48:37.035Z,48.56
2022-09-02T08:51:03.350Z,48.98
2022-09-02T08:53:29.654Z,47.65
2022-09-02T08:55:55.996Z,47.63
2022-09-02T08:58:22.984Z,46.46
2022-09-02T09:00:50.439Z,46.33
2022-09-02T09:03:16.796Z,45.79
2022-09-02T09:05:43.616Z,45.98
2022-09-02T09:08:13.932Z,45.68
2022-09-02T09:10:41.163Z,46.27
2022-09-02T09:13:08.795Z,46.40
2022-09-02T09:15:35.122Z,45.42
2022-09-02T09:18:03.010Z,44.45
2022-09-02T09:20:29.238Z,44.20
2022-09-02T09:22:58.302Z,44.23
2022-09-02T09:25:30.628Z,42.48
2022-09-02T09:27:56.997Z,42.56
2022-09-02T09:30:23.498Z,41.34
2022-09-02T09:32:51.350Z,42.36
2022-09-02T09:35:17.700Z,41.68
2022-09-02T09:37:44.195Z,41.61
2022-09-02T09:40:10.549Z,41.33
2022-09-02T09:42:37.233Z,41.17
2022-09-02T09:45:03.518Z,40.49
2022-09-02T09:47:29.816Z,39.97
2022-09-02T09:49:56.137Z,39.20
2022-09-02T09:52:22.459Z,38.58
2022-09-02T09:54:48.760Z,38.50
2022-09-02T09:57:15.062Z,38.64
2022-09-02T09:59:42.507Z,39.81
2022-09-02T10:02:08.880Z,40.03
2022-09-02T10:04:43.655Z,39.55
2022-09-02T10:07:10.394Z,39.12
2022-09-02T10:09:37.336Z,40.09
2022-09-02T10:12:05.222Z,39.69
2022-09-02T10:14:33.154Z,40.14
2022-09-02T10:16:59.453Z,39.32
2022-09-02T10:19:26.628Z,39.52
2022-09-02T10:21:52.936Z,39.28
2022-09-02T10:24:19.243Z,38.87
2022-09-02T10:26:45.549Z,40.02
2022-09-02T10:29:11.872Z,39.42
2022-09-02T10:31:38.658Z,38.81
2022-09-02T10:34:05.030Z,38.67
2022-09-02T10:36:31.332Z,39.12
2022-09-02T10:38:57.624Z,39.23
2022-09-02T10:41:23.924Z,40.34
2022-09-02T10:43:50.253Z,40.58
2022-09-02T10:46:24.556Z,38.60
2022-09-02T10:48:50.883Z,38.32
2022-09-02T10:51:17.185Z,38.57
2022-09-02T10:53:44.209Z,37.96
2022-09-02T10:56:10.589Z,38.54
2022-09-02T10:58:36.892Z,38.56
2022-09-02T11:01:03.220Z,38.45
2022-09-02T11:03:29.797Z,38.57
2022-09-02T11:06:00.127Z,38.43
2022-09-02T11:08:30.983Z,37.78
2022-09-02T11:10:58.104Z,37.61
2022-09-02T11:13:24.529Z,38.64
2022-09-02T11:15:50.908Z,39.18
2022-09-02T11:18:17.864Z,38.68
2022-09-02T11:20:44.200Z,38.70
2022-09-02T11:23:10.673Z,38.52
2022-09-02T11:25:37.283Z,38.76
2022-09-02T11:28:03.728Z,39.65
2022-09-02T11:30:30.047Z,39.70
2022-09-02T11:32:56.355Z,39.56
2022-09-02T11:35:23.532Z,40.33
2022-09-02T11:37:49.832Z,40.14
2022-09-02T11:40:33.718Z,40.53
2022-09-02T11:43:02.437Z,41.42
2022-09-02T11:45:28.888Z,41.85
2022-09-02T11:47:55.235Z,40.94
2022-09-02T11:50:21.535Z,40.77
2022-09-02T11:52:48.502Z,40.01
2022-09-02T11:55:15.727Z,40.61
2022-09-02T11:57:43.389Z,41.04
2022-09-02T12:00:10.573Z,39.53
2022-09-02T12:02:36.981Z,38.78
2022-09-02T12:05:04.136Z,38.16
2022-09-02T12:07:34.009Z,37.97
2022-09-02T12:10:02.276Z,37.07
2022-09-02T12:12:28.641Z,37.47
2022-09-02T12:14:55.969Z,38.54
2022-09-02T12:17:22.263Z,38.39
2022-09-02T12:19:49.895Z,37.82
2022-09-02T12:22:16.210Z,37.29
2022-09-02T12:24:43.460Z,37.38
2022-09-02T12:27:09.774Z,37.29
2022-09-02T12:29:36.949Z,37.10
2022-09-02T12:32:06.181Z,37.30
2022-09-02T12:34:32.480Z,36.35
2022-09-02T12:36:58.818Z,35.62
2022-09-02T12:39:27.984Z,35.83
2022-09-02T12:41:54.310Z,36.44
2022-09-02T12:44:21.224Z,35.14
2022-09-02T12:46:47.646Z,35.18
2022-09-02T12:49:13.997Z,35.91
2022-09-02T12:51:40.483Z,36.46
2022-09-02T12:54:06.819Z,36.79
2022-09-02T12:56:33.121Z,36.96
2022-09-02T12:59:02.749Z,37.37
2022-09-02T13:01:29.547Z,38.25
2022-09-02T13:03:55.935Z,38.86
2022-09-02T13:06:22.253Z,38.72
2022-09-02T13:08:48.558Z,38.64
2022-09-02T13:11:14.853Z,39.00
2022-09-02T13:13:41.154Z,38.58
2022-09-02T13:16:07.483Z,38.27
2022-09-02T13:18:41.945Z,38.95
2022-09-02T13:21:08.253Z,38.19
2022-09-02T13:23:35.238Z,37.44
2022-09-02T13:26:01.875Z,38.28
2022-09-02T13:28:28.309Z,39.04
2022-09-02T13:30:54.693Z,38.70
2022-09-02T13:33:21.030Z,38.45
2022-09-02T13:35:47.385Z,39.49
2022-09-02T13:38:15.646Z,39.18
2022-09-02T13:40:45.885Z,38.89
2022-09-02T13:43:12.358Z,38.84
2022-09-02T13:45:38.657Z,39.16
2022-09-02T13:48:04.963Z,39.76
2022-09-02T13:50:31.356Z,39.71
2022-09-02T13:53:49.303Z,39.27
2022-09-02T13:55:44.014Z,38.47
2022-09-02T13:58:10.570Z,38.29
2022-09-02T14:00:37.544Z,38.63
2022-09-02T14:03:04.009Z,38.62
2022-09-02T14:05:30.402Z,38.59
2022-09-02T14:07:57.299Z,38.05
2022-09-02T14:10:23.532Z,38.30
2022-09-02T14:12:49.911Z,37.64
2022-09-02T14:15:16.220Z,37.46
2022-09-02T14:17:44.591Z,37.38
2022-09-02T14:20:10.908Z,37.10
2022-09-02T14:22:37.249Z,37.78
2022-09-02T14:25:03.549Z,37.47
2022-09-02T14:27:29.853Z,37.53
2022-09-02T14:29:56.189Z,37.84
2022-09-02T14:32:22.514Z,37.28
2022-09-02T14:34:48.813Z,37.33
2022-09-02T14:37:15.183Z,37.92
2022-09-02T14:39:41.568Z,38.43
2022-09-02T14:42:07.873Z,38.08
2022-09-02T14:44:34.536Z,38.43
2022-09-02T14:47:00.975Z,38.19
2022-09-02T14:49:27.300Z,37.99
2022-09-02T14:51:53.648Z,38.97
2022-09-02T14:54:19.940Z,38.85
2022-09-02T14:56:46.305Z,38.93
2022-09-02T14:59:12.603Z,39.12
2022-09-02T15:01:38.977Z,39.35
2022-09-02T15:04:05.328Z,39.35
2022-09-02T15:06:31.667Z,40.02
2022-09-02T15:08:57.958Z,40.38
2022-09-02T15:11:24.257Z,40.08
2022-09-02T15:13:50.564Z,40.55
2022-09-02T15:16:16.867Z,40.82
2022-09-02T15:18:43.181Z,40.86
2022-09-02T15:21:09.822Z,41.37
2022-09-02T15:23:41.226Z,40.78
2022-09-02T15:26:08.562Z,39.95
2022-09-02T15:28:34.884Z,40.69
2022-09-02T15:31:01.257Z,39.77
2022-09-02T15:33:27.579Z,40.21
2022-09-02T15:35:53.872Z,39.71
2022-09-02T15:38:20.172Z,39.27
2022-09-02T15:40:46.475Z,39.48
2022-09-02T15:43:12.832Z,39.18
2022-09-02T15:45:39.630Z,39.86
2022-09-02T15:48:07.056Z,40.17
2022-09-02T15:50:33.939Z,39.96
2022-09-02T15:53:00.638Z,40.72
2022-09-02T15:55:26.971Z,40.06
2022-09-02T15:57:55.908Z,40.90
2022-09-02T16:00:22.251Z,40.79
2022-09-02T16:02:48.654Z,41.39
2022-09-02T16:05:15.480Z,40.76
2022-09-02T16:07:41.874Z,41.01
2022-09-02T16:10:08.247Z,41.57
2022-09-02T16:12:34.547Z,41.28
2022-09-02T16:15:00.861Z,40.94
2022-09-02T16:17:27.147Z,41.57
2022-09-02T16:19:53.869Z,41.63
2022-09-02T16:22:20.184Z,42.21
2022-09-02T16:24:46.763Z,42.45
2022-09-02T16:27:13.075Z,42.01
2022-09-02T16:29:39.784Z,43.07
2022-09-02T16:34:53.575Z,42.58
2022-09-02T16:37:19.944Z,43.58
2022-09-02T16:39:46.274Z,43.32
2022-09-02T16:42:12.572Z,43.47
2022-09-02T16:44:41.283Z,42.74
2022-09-02T16:47:07.576Z,42.54
2022-09-02T16:49:34.731Z,42.77
2022-09-02T16:52:01.221Z,41.09
2022-09-02T16:54:31.332Z,40.90
2022-09-02T16:56:58.723Z,40.28
2022-09-02T16:59:25.026Z,39.86
2022-09-02T17:01:51.379Z,40.37
2022-09-02T17:04:17.701Z,39.86
2022-09-02T17:06:44.255Z,39.84
2022-09-02T17:09:10.544Z,39.70
2022-09-02T17:11:37.891Z,39.80
2022-09-02T17:14:04.191Z,40.28
2022-09-02T17:16:30.557Z,40.30
2022-09-02T17:18:56.913Z,39.91
2022-09-02T17:21:23.220Z,40.65
2022-09-02T17:23:49.527Z,40.76
2022-09-02T17:26:15.855Z,40.94
2022-09-02T17:28:48.671Z,40.97
2022-09-02T17:31:15.113Z,41.28
2022-09-02T17:33:41.428Z,41.21
2022-09-02T17:36:09.011Z,41.38
2022-09-02T17:38:35.309Z,41.33
2022-09-02T17:41:21.535Z,41.65
2022-09-02T17:43:47.834Z,41.52
2022-09-02T17:46:14.176Z,42.16
2022-09-02T17:49:05.815Z,42.72
2022-09-02T17:51:28.195Z,42.47
2022-09-02T17:53:54.528Z,42.46
2022-09-02T17:56:21.816Z,42.56
2022-09-02T17:58:52.675Z,42.74
2022-09-02T18:01:21.633Z,42.50
2022-09-02T18:03:48.051Z,43.18
2022-09-02T18:06:14.384Z,43.36
2022-09-02T18:08:40.724Z,42.95
2022-09-02T18:11:07.813Z,43.32
2022-09-02T18:13:34.152Z,43.20
2022-09-02T18:16:00.454Z,43.66
2022-09-02T18:18:28.270Z,43.13
2022-09-02T18:20:54.945Z,43.70
2022-09-02T18:23:21.284Z,43.80
2022-09-02T18:25:48.615Z,43.56
2022-09-02T18:28:15.251Z,43.51
2022-09-02T18:30:41.825Z,43.83
2022-09-02T18:33:08.157Z,44.37
2022-09-02T18:35:34.513Z,44.14
2022-09-02T18:38:00.807Z,44.18
2022-09-02T18:40:27.342Z,44.68
2022-09-02T18:42:53.649Z,44.88
2022-09-02T18:45:21.968Z,44.31
2022-09-02T18:47:49.529Z,44.55
2022-09-02T18:50:32.013Z,44.47
2022-09-02T18:53:05.852Z,44.52
2022-09-02T18:55:32.153Z,45.34
2022-09-02T18:57:59.786Z,45.64
2022-09-02T19:00:26.574Z,44.99
2022-09-02T19:02:52.897Z,45.55
2022-09-02T19:05:19.201Z,45.63
2022-09-02T19:08:04.330Z,45.61
2022-09-02T19:10:30.622Z,44.93
2022-09-02T19:12:56.913Z,45.78
2022-09-02T19:15:23.315Z,45.38
2022-09-02T19:17:49.617Z,44.97
2022-09-02T19:20:15.990Z,45.24
2022-09-02T19:22:42.288Z,45.39
2022-09-02T19:25:08.597Z,45.73
2022-09-02T19:27:34.923Z,45.75
2022-09-02T19:30:01.399Z,45.72
2022-09-02T19:32:27.705Z,45.94
2022-09-02T19:34:54.007Z,45.79
2022-09-02T19:37:20.314Z,46.75
2022-09-02T19:39:51.161Z,46.36
2022-09-02T19:42:20.880Z,45.90
2022-09-02T19:44:50.703Z,46.20
2022-09-02T19:50:03.327Z,46.66
2022-09-02T19:52:29.629Z,46.86
2022-09-02T19:54:55.945Z,46.76
2022-09-02T19:57:22.242Z,47.05
2022-09-02T19:59:48.545Z,48.04
2022-09-02T20:02:14.892Z,48.45
2022-09-02T20:04:41.277Z,48.50
2022-09-02T20:07:07.588Z,48.50
2022-09-02T20:09:33.887Z,48.68
2022-09-02T20:12:00.226Z,49.03
2022-09-02T20:14:26.520Z,48.95
2022-09-02T20:16:52.808Z,49.32
2022-09-02T20:19:19.215Z,49.59
2022-09-02T20:21:46.169Z,49.41
2022-09-02T20:24:12.489Z,49.14
2022-09-02T20:26:38.804Z,49.44
2022-09-02T20:29:05.113Z,50.19
2022-09-02T20:31:31.632Z,51.21
2022-09-02T20:34:01.594Z,50.65
2022-09-02T20:36:27.879Z,51.12
2022-09-02T20:38:54.179Z,51.46
2022-09-02T20:41:20.481Z,51.21
2022-09-02T20:43:47.225Z,51.17
2022-09-02T20:46:13.776Z,50.64
2022-09-02T20:48:40.093Z,51.52
2022-09-02T20:51:06.450Z,52.22
2022-09-02T20:53:32.766Z,52.39
2022-09-02T20:55:59.060Z,52.26
2022-09-02T20:58:25.496Z,51.81
2022-09-02T21:00:51.961Z,51.52
2022-09-02T21:03:18.276Z,51.22
2022-09-02T21:05:44.564Z,52.30
2022-09-02T21:08:11.104Z,51.36
2022-09-02T21:10:37.404Z,51.09
2022-09-02T21:13:03.701Z,52.13
2022-09-02T21:15:30.205Z,51.91
2022-09-02T21:17:56.605Z,51.81
2022-09-02T21:20:22.896Z,51.96
2022-09-02T21:22:49.219Z,52.14
2022-09-02T21:25:18.937Z,52.09
2022-09-02T21:27:45.479Z,51.98
2022-09-02T21:30:12.066Z,52.69
2022-09-02T21:32:38.352Z,53.63
2022-09-02T21:35:04.655Z,54.28
2022-09-02T21:37:31.062Z,55.16
2022-09-02T21:39:58.219Z,55.80
2022-09-02T21:42:24.619Z,55.97
2022-09-02T21:44:50.916Z,56.14
2022-09-02T21:47:19.386Z,55.37
2022-09-02T21:49:45.916Z,56.65
2022-09-02T21:52:12.488Z,57.30
2022-09-02T21:54:38.826Z,58.19
2022-09-02T21:57:05.128Z,57.45
2022-09-02T21:59:31.478Z,57.88
2022-09-02T22:01:57.829Z,58.06
2022-09-02T22:04:24.180Z,57.66
2022-09-02T22:06:51.005Z,58.42
2022-09-02T22:09:17.303Z,58.89
2022-09-02T22:11:43.601Z,58.90
2022-09-02T22:14:14.468Z,58.59
2022-09-02T22:16:41.087Z,58.39
2022-09-02T22:19:09.992Z,58.42
2022-09-02T22:21:47.023Z,58.45
2022-09-02T22:24:13.327Z,58.94
2022-09-02T22:26:39.692Z,59.15
2022-09-02T22:29:06.001Z,59.45
2022-09-02T22:31:32.350Z,59.36
2022-09-02T22:33:58.755Z,59.67
2022-09-02T22:36:25.280Z,59.94
2022-09-02T22:38:52.089Z,60.10
2022-09-02T22:41:20.094Z,60.76
2022-09-02T22:43:46.384Z,60.61
2022-09-02T22:46:31.397Z,60.91
2022-09-02T22:49:16.310Z,61.15
2022-09-02T22:52:01.169Z,61.19
2022-09-02T22:54:27.836Z,61.58
2022-09-02T22:56:54.424Z,62.45
2022-09-02T22:59:20.733Z,63.01
2022-09-02T23:01:47.113Z,63.52
2022-09-02T23:04:13.444Z,63.44
2022-09-02T23:06:39.739Z,63.30
2022-09-02T23:09:09.641Z,63.85
2022-09-02T23:11:35.994Z,64.08
2022-09-02T23:14:06.928Z,64.92
2022-09-02T23:16:35.103Z,64.97
2022-09-02T23:19:01.406Z,64.92
2022-09-02T23:21:28.084Z,65.20
2022-09-02T23:23:54.402Z,66.51
2022-09-02T23:26:20.840Z,65.94
2022-09-02T23:28:47.634Z,65.44
2022-09-02T23:31:18.354Z,65.66
2022-09-02T23:33:45.973Z,66.28
2022-09-02T23:36:12.700Z,65.52
2022-09-02T23:38:44.085Z,66.01
2022-09-02T23:41:10.405Z,66.50
2022-09-02T23:43:39.120Z,65.55
2022-09-02T23:46:05.693Z,65.05
2022-09-02T23:48:32.049Z,65.92
2022-09-02T23:50:58.343Z,66.10
2022-09-02T23:53:24.660Z,66.01
2022-09-02T23:55:51.073Z,66.35
2022-09-02T23:58:18.499Z,66.91
